createdAt,value
2019-05-18T00:01:43.763Z,86.81
2019-05-18T00:04:13.256Z,86.93
2019-05-18T00:06:42.718Z,87.01
2019-05-18T00:09:12.524Z,87.40
2019-05-18T00:11:42.380Z,87.42
2019-05-18T00:14:11.887Z,87.50
2019-05-18T00:16:41.384Z,87.65
2019-05-18T00:19:10.832Z,87.60
2019-05-18T00:21:40.710Z,87.62
2019-05-18T00:24:10.279Z,87.67
2019-05-18T00:26:39.735Z,87.66
2019-05-18T00:29:10.852Z,87.67
2019-05-18T00:31:40.446Z,87.71
2019-05-18T00:34:10.006Z,87.74
2019-05-18T00:36:39.470Z,87.72
2019-05-18T00:39:10.129Z,87.75
2019-05-18T00:41:39.633Z,87.69
2019-05-18T00:44:09.463Z,87.70
2019-05-18T00:46:38.960Z,87.68
2019-05-18T00:49:08.451Z,87.71
2019-05-18T00:51:37.977Z,87.66
2019-05-18T00:54:07.608Z,87.64
2019-05-18T00:56:37.091Z,87.67
2019-05-18T00:59:06.602Z,87.71
2019-05-18T01:01:36.050Z,87.87
2019-05-18T01:04:06.609Z,87.85
2019-05-18T01:06:36.062Z,87.93
2019-05-18T01:09:06.594Z,88.42
2019-05-18T01:11:36.156Z,88.29
2019-05-18T01:14:05.800Z,88.30
2019-05-18T01:16:35.309Z,88.22
2019-05-18T01:19:04.872Z,88.30
2019-05-18T01:21:34.467Z,88.52
2019-05-18T01:24:04.423Z,88.41
2019-05-18T01:26:34.250Z,88.49
2019-05-18T01:29:05.190Z,88.47
2019-05-18T01:31:35.082Z,88.48
2019-05-18T01:34:04.712Z,88.54
2019-05-18T01:36:34.169Z,88.53
2019-05-18T01:39:05.967Z,88.50
2019-05-18T01:41:35.842Z,88.65
2019-05-18T01:44:05.797Z,88.67
2019-05-18T01:46:35.260Z,88.67
2019-05-18T01:49:04.865Z,88.91
2019-05-18T01:51:34.411Z,88.80
2019-05-18T01:54:03.957Z,89.06
2019-05-18T01:56:33.455Z,89.06
2019-05-18T01:59:03.013Z,89.06
2019-05-18T02:01:32.454Z,89.23
2019-05-18T02:04:01.955Z,89.37
2019-05-18T02:06:31.870Z,89.44
2019-05-18T02:09:01.354Z,89.46
2019-05-18T02:11:32.223Z,89.51
2019-05-18T02:14:01.719Z,89.58
2019-05-18T02:16:34.288Z,89.59
2019-05-18T02:19:03.735Z,89.59
2019-05-18T02:21:33.225Z,89.66
2019-05-18T02:24:02.690Z,89.64
2019-05-18T02:26:32.182Z,89.61
2019-05-18T02:29:01.677Z,89.62
2019-05-18T02:31:31.144Z,89.70
2019-05-18T02:34:00.642Z,89.72
2019-05-18T02:36:30.100Z,89.97
2019-05-18T02:38:59.553Z,89.94
2019-05-18T02:41:29.047Z,89.91
2019-05-18T02:43:58.500Z,89.88
2019-05-18T02:46:28.472Z,89.86
2019-05-18T02:48:59.563Z,89.79
2019-05-18T02:51:29.048Z,89.76
2019-05-18T02:53:58.672Z,89.72
2019-05-18T02:56:28.167Z,89.77
2019-05-18T02:58:57.647Z,89.83
2019-05-18T03:01:27.366Z,89.92
2019-05-18T03:03:57.926Z,89.83
2019-05-18T03:06:28.412Z,89.77
2019-05-18T03:08:58.346Z,89.73
2019-05-18T03:11:28.230Z,89.71
2019-05-18T03:13:57.736Z,89.79
2019-05-18T03:16:27.232Z,89.80
2019-05-18T03:19:07.541Z,89.76
2019-05-18T03:21:28.267Z,89.85
2019-05-18T03:23:58.414Z,89.81
2019-05-18T03:26:28.258Z,89.85
2019-05-18T03:28:57.787Z,89.91
2019-05-18T03:31:27.280Z,90.30
2019-05-18T03:33:56.776Z,90.28
2019-05-18T03:36:26.337Z,90.30
2019-05-18T03:38:55.784Z,90.38
2019-05-18T03:41:25.266Z,90.45
2019-05-18T03:43:54.720Z,90.52
2019-05-18T03:46:24.303Z,90.52
2019-05-18T03:48:54.803Z,90.42
2019-05-18T03:51:24.305Z,90.39
2019-05-18T03:53:53.756Z,90.29
2019-05-18T03:56:23.708Z,90.21
2019-05-18T03:58:53.192Z,90.17
2019-05-18T04:01:22.716Z,90.12
2019-05-18T04:03:52.511Z,90.01
2019-05-18T04:06:21.983Z,89.92
2019-05-18T04:08:51.438Z,89.83
2019-05-18T04:11:20.922Z,89.72
2019-05-18T04:13:50.372Z,89.69
2019-05-18T04:16:19.880Z,89.66
2019-05-18T04:18:49.453Z,89.68
2019-05-18T04:21:19.008Z,89.59
2019-05-18T04:23:48.511Z,89.46
2019-05-18T04:26:18.012Z,89.29
2019-05-18T04:28:48.551Z,89.19
2019-05-18T04:31:18.040Z,89.06
2019-05-18T04:33:47.497Z,89.05
2019-05-18T04:36:16.998Z,88.98
2019-05-18T04:38:46.508Z,88.90
2019-05-18T04:41:17.468Z,88.84
2019-05-18T04:43:46.933Z,88.77
2019-05-18T04:46:16.784Z,88.61
2019-05-18T04:48:46.313Z,88.51
2019-05-18T04:51:17.335Z,88.41
2019-05-18T04:53:46.791Z,88.31
2019-05-18T04:56:16.295Z,88.23
2019-05-18T04:58:46.057Z,88.22
2019-05-18T05:01:15.564Z,88.20
2019-05-18T05:03:45.376Z,88.13
2019-05-18T05:06:14.939Z,88.03
2019-05-18T05:08:44.793Z,87.89
2019-05-18T05:11:14.284Z,87.72
2019-05-18T05:13:43.731Z,87.58
2019-05-18T05:16:13.599Z,87.41
2019-05-18T05:18:43.047Z,87.23
2019-05-18T05:21:12.537Z,87.03
2019-05-18T05:23:41.978Z,86.86
2019-05-18T05:26:11.471Z,86.70
2019-05-18T05:28:40.943Z,86.58
2019-05-18T05:31:10.424Z,86.46
2019-05-18T05:33:39.889Z,86.21
2019-05-18T05:36:09.676Z,85.95
2019-05-18T05:38:39.146Z,85.73
2019-05-18T05:41:08.662Z,85.29
2019-05-18T05:43:38.111Z,85.05
2019-05-18T05:46:07.614Z,84.71
2019-05-18T05:48:37.406Z,84.26
2019-05-18T05:51:06.866Z,83.97
2019-05-18T05:53:36.354Z,83.82
2019-05-18T05:56:05.805Z,83.44
2019-05-18T05:58:35.310Z,83.09
2019-05-18T06:01:04.849Z,82.72
2019-05-18T06:03:34.378Z,82.59
2019-05-18T06:06:03.918Z,82.27
2019-05-18T06:08:33.765Z,81.92
2019-05-18T06:11:03.261Z,81.42
2019-05-18T06:13:33.858Z,80.85
2019-05-18T06:16:03.310Z,80.51
2019-05-18T06:18:32.818Z,80.17
2019-05-18T06:21:02.332Z,80.16
2019-05-18T06:23:31.837Z,80.05
2019-05-18T06:26:01.396Z,79.96
2019-05-18T06:28:30.894Z,79.85
2019-05-18T06:31:01.194Z,79.81
2019-05-18T06:33:30.981Z,79.77
2019-05-18T06:36:00.467Z,79.67
2019-05-18T06:38:29.971Z,79.37
2019-05-18T06:40:59.451Z,79.34
2019-05-18T06:43:29.020Z,79.19
2019-05-18T06:45:58.837Z,79.47
2019-05-18T06:48:28.362Z,79.50
2019-05-18T06:51:06.716Z,79.47
2019-05-18T06:53:29.089Z,79.34
2019-05-18T06:55:58.998Z,79.25
2019-05-18T06:58:29.745Z,78.86
2019-05-18T07:00:59.650Z,78.57
2019-05-18T07:03:29.218Z,78.28
2019-05-18T07:05:58.641Z,78.07
2019-05-18T07:08:28.137Z,77.50
2019-05-18T07:10:57.611Z,77.04
2019-05-18T07:13:27.157Z,76.52
2019-05-18T07:15:56.653Z,76.53
2019-05-18T07:18:26.240Z,76.14
2019-05-18T07:20:55.693Z,75.76
2019-05-18T07:23:25.160Z,75.54
2019-05-18T07:25:54.660Z,75.25
2019-05-18T07:28:24.151Z,74.81
2019-05-18T07:30:53.643Z,74.25
2019-05-18T07:33:23.386Z,73.88
2019-05-18T07:35:53.263Z,73.39
2019-05-18T07:38:22.783Z,73.02
2019-05-18T07:40:52.300Z,72.99
2019-05-18T07:43:21.770Z,72.42
2019-05-18T07:45:51.275Z,71.44
2019-05-18T07:48:20.748Z,70.84
2019-05-18T07:50:50.818Z,70.12
2019-05-18T07:53:20.274Z,70.04
2019-05-18T07:55:49.819Z,70.05
2019-05-18T07:58:19.300Z,69.71
2019-05-18T08:00:48.796Z,69.10
2019-05-18T08:03:18.643Z,69.03
2019-05-18T08:05:48.298Z,69.11
2019-05-18T08:08:17.748Z,68.67
2019-05-18T08:10:47.250Z,68.10
2019-05-18T08:13:17.093Z,67.69
2019-05-18T08:15:46.592Z,66.38
2019-05-18T08:18:17.631Z,66.03
2019-05-18T08:20:47.152Z,65.75
2019-05-18T08:23:16.610Z,65.18
2019-05-18T08:25:46.133Z,63.33
2019-05-18T08:28:15.580Z,62.73
2019-05-18T08:30:45.203Z,62.23
2019-05-18T08:33:14.749Z,60.76
2019-05-18T08:35:44.224Z,59.40
2019-05-18T08:38:13.785Z,58.95
2019-05-18T08:40:43.334Z,58.35
2019-05-18T08:43:13.104Z,58.07
2019-05-18T08:45:42.594Z,58.08
2019-05-18T08:48:12.044Z,57.12
2019-05-18T08:50:42.960Z,56.07
2019-05-18T08:53:12.468Z,56.54
2019-05-18T08:55:41.971Z,55.45
2019-05-18T08:58:11.432Z,55.98
2019-05-18T09:00:40.919Z,56.29
2019-05-18T09:03:10.461Z,56.58
2019-05-18T09:05:40.115Z,56.11
2019-05-18T09:08:09.630Z,55.94
2019-05-18T09:10:39.491Z,56.70
2019-05-18T09:13:09.035Z,56.15
2019-05-18T09:15:38.607Z,55.79
2019-05-18T09:18:08.248Z,56.66
2019-05-18T09:20:37.884Z,56.55
2019-05-18T09:23:10.239Z,56.35
2019-05-18T09:25:39.714Z,56.44
2019-05-18T09:28:09.174Z,56.37
2019-05-18T09:30:41.210Z,56.48
2019-05-18T09:33:09.829Z,56.74
2019-05-18T09:35:39.396Z,56.43
2019-05-18T09:38:08.899Z,56.24
2019-05-18T09:40:38.732Z,55.28
2019-05-18T09:43:08.538Z,54.60
2019-05-18T09:45:38.039Z,53.66
2019-05-18T09:48:07.646Z,54.32
2019-05-18T09:50:37.216Z,54.29
2019-05-18T09:53:06.659Z,54.30
2019-05-18T09:55:36.251Z,53.38
2019-05-18T09:58:06.193Z,53.01
2019-05-18T10:00:38.934Z,53.20
2019-05-18T10:03:07.168Z,52.38
2019-05-18T10:05:36.695Z,52.52
2019-05-18T10:08:06.243Z,52.73
2019-05-18T10:10:35.695Z,52.02
2019-05-18T10:13:05.209Z,50.62
2019-05-18T10:15:35.191Z,51.64
2019-05-18T10:18:04.991Z,51.97
2019-05-18T10:20:34.486Z,51.39
2019-05-18T10:23:12.392Z,51.51
2019-05-18T10:25:35.247Z,51.37
2019-05-18T10:28:04.797Z,51.12
2019-05-18T10:30:34.239Z,50.16
2019-05-18T10:33:03.945Z,49.37
2019-05-18T10:35:33.574Z,49.63
2019-05-18T10:38:03.095Z,49.64
2019-05-18T10:40:32.737Z,49.18
2019-05-18T10:43:02.172Z,49.56
2019-05-18T10:45:32.067Z,49.29
2019-05-18T10:48:01.918Z,49.79
2019-05-18T10:50:31.544Z,49.76
2019-05-18T10:53:01.398Z,49.59
2019-05-18T10:55:31.011Z,49.32
2019-05-18T10:58:00.513Z,49.20
2019-05-18T11:00:30.720Z,48.79
2019-05-18T11:03:00.298Z,48.21
2019-05-18T11:05:29.805Z,47.83
2019-05-18T11:07:59.326Z,47.71
2019-05-18T11:10:29.056Z,47.04
2019-05-18T11:12:58.547Z,47.31
2019-05-18T11:15:28.129Z,47.59
2019-05-18T11:17:57.753Z,47.13
2019-05-18T11:20:27.591Z,47.49
2019-05-18T11:22:57.145Z,47.00
2019-05-18T11:25:26.664Z,46.97
2019-05-18T11:27:56.441Z,46.97
2019-05-18T11:30:26.130Z,46.99
2019-05-18T11:32:55.648Z,47.01
2019-05-18T11:35:25.265Z,46.97
2019-05-18T11:37:54.869Z,47.09
2019-05-18T11:40:24.468Z,47.17
2019-05-18T11:42:55.084Z,47.25
2019-05-18T11:45:25.279Z,46.52
2019-05-18T11:47:55.131Z,46.65
2019-05-18T11:50:25.698Z,46.69
2019-05-18T11:52:56.395Z,46.86
2019-05-18T11:55:26.124Z,46.66
2019-05-18T11:57:59.156Z,46.27
2019-05-18T12:00:29.094Z,45.86
2019-05-18T12:02:58.661Z,46.52
2019-05-18T12:05:28.154Z,45.58
2019-05-18T12:07:57.669Z,45.88
2019-05-18T12:10:27.128Z,45.48
2019-05-18T12:12:56.960Z,45.78
2019-05-18T12:15:26.652Z,45.81
2019-05-18T12:17:56.191Z,44.97
2019-05-18T12:20:25.850Z,45.14
2019-05-18T12:22:55.805Z,45.98
2019-05-18T12:25:25.377Z,45.82
2019-05-18T12:27:54.852Z,46.01
2019-05-18T12:30:24.775Z,45.45
2019-05-18T12:32:54.217Z,45.28
2019-05-18T12:35:23.701Z,44.39
2019-05-18T12:37:53.160Z,44.76
2019-05-18T12:40:23.590Z,44.89
2019-05-18T12:42:53.197Z,45.47
2019-05-18T12:45:23.153Z,45.85
2019-05-18T12:47:52.614Z,45.90
2019-05-18T12:50:22.921Z,45.67
2019-05-18T12:52:52.500Z,46.65
2019-05-18T12:55:22.286Z,46.09
2019-05-18T12:57:52.139Z,45.52
2019-05-18T13:00:22.116Z,45.86
2019-05-18T13:02:52.014Z,46.00
2019-05-18T13:05:21.645Z,46.38
2019-05-18T13:07:51.518Z,45.70
2019-05-18T13:10:21.705Z,45.27
2019-05-18T13:12:51.415Z,45.55
2019-05-18T13:15:21.135Z,45.23
2019-05-18T13:17:50.726Z,45.22
2019-05-18T13:20:21.684Z,45.00
2019-05-18T13:22:51.224Z,45.17
2019-05-18T13:25:26.469Z,45.07
2019-05-18T13:27:54.082Z,44.45
2019-05-18T13:30:24.098Z,44.04
2019-05-18T13:32:54.007Z,44.14
2019-05-18T13:35:23.641Z,43.92
2019-05-18T13:37:53.141Z,44.53
2019-05-18T13:40:23.601Z,43.50
2019-05-18T13:42:53.051Z,43.74
2019-05-18T13:45:22.729Z,43.80
2019-05-18T13:47:52.838Z,43.53
2019-05-18T13:50:23.372Z,43.72
2019-05-18T13:52:52.901Z,44.33
2019-05-18T13:55:23.741Z,44.24
2019-05-18T13:57:53.200Z,43.75
2019-05-18T14:00:23.174Z,44.02
2019-05-18T14:02:52.897Z,43.29
2019-05-18T14:05:23.152Z,43.94
2019-05-18T14:07:52.605Z,44.56
2019-05-18T14:10:22.164Z,43.89
2019-05-18T14:12:51.621Z,44.21
2019-05-18T14:15:22.981Z,44.42
2019-05-18T14:17:52.811Z,44.54
2019-05-18T14:20:22.559Z,44.66
2019-05-18T14:22:52.097Z,44.88
2019-05-18T14:25:21.644Z,44.74
2019-05-18T14:27:51.310Z,44.87
2019-05-18T14:30:23.364Z,44.64
2019-05-18T14:32:52.949Z,44.62
2019-05-18T14:35:22.397Z,44.79
2019-05-18T14:37:51.899Z,45.17
2019-05-18T14:40:21.493Z,44.69
2019-05-18T14:42:51.301Z,44.51
2019-05-18T14:45:20.895Z,45.12
2019-05-18T14:47:50.472Z,44.99
2019-05-18T14:50:20.312Z,44.14
2019-05-18T14:52:49.895Z,43.37
2019-05-18T14:55:32.868Z,44.07
2019-05-18T14:57:50.632Z,44.64
2019-05-18T15:00:20.715Z,43.91
2019-05-18T15:02:50.231Z,43.50
2019-05-18T15:05:20.365Z,43.78
2019-05-18T15:07:49.937Z,43.86
2019-05-18T15:10:20.343Z,43.99
2019-05-18T15:12:49.898Z,44.05
2019-05-18T15:15:19.662Z,43.81
2019-05-18T15:17:49.440Z,43.29
2019-05-18T15:20:19.318Z,43.64
2019-05-18T15:22:49.243Z,43.73
2019-05-18T15:25:18.848Z,43.48
2019-05-18T15:27:48.362Z,44.15
2019-05-18T15:30:18.927Z,43.85
2019-05-18T15:32:48.576Z,44.21
2019-05-18T15:35:18.350Z,43.27
2019-05-18T15:37:47.938Z,43.02
2019-05-18T15:40:17.630Z,43.71
2019-05-18T15:42:49.253Z,43.66
2019-05-18T15:45:19.533Z,43.53
2019-05-18T15:47:49.153Z,43.57
2019-05-18T15:50:18.960Z,43.54
2019-05-18T15:52:48.527Z,43.31
2019-05-18T15:55:18.080Z,43.40
2019-05-18T15:57:47.925Z,43.57
2019-05-18T16:00:18.145Z,43.46
2019-05-18T16:02:47.688Z,43.87
2019-05-18T16:05:17.506Z,44.00
2019-05-18T16:07:47.106Z,43.81
2019-05-18T16:10:17.289Z,43.49
2019-05-18T16:12:46.865Z,43.98
2019-05-18T16:15:16.476Z,43.45
2019-05-18T16:17:45.983Z,43.59
2019-05-18T16:20:15.772Z,44.29
2019-05-18T16:22:45.325Z,44.14
2019-05-18T16:25:15.876Z,43.75
2019-05-18T16:27:45.460Z,43.21
2019-05-18T16:30:16.357Z,43.32
2019-05-18T16:32:45.905Z,43.21
2019-05-18T16:35:15.987Z,43.43
2019-05-18T16:37:45.570Z,42.96
2019-05-18T16:40:15.902Z,43.07
2019-05-18T16:42:46.652Z,42.70
2019-05-18T16:45:19.092Z,42.31
2019-05-18T16:47:49.039Z,41.53
2019-05-18T16:50:19.237Z,41.11
2019-05-18T16:52:49.338Z,40.78
2019-05-18T16:55:19.045Z,41.15
2019-05-18T16:57:48.687Z,41.43
2019-05-18T17:00:18.666Z,40.62
2019-05-18T17:02:48.686Z,39.31
2019-05-18T17:05:18.693Z,37.93
2019-05-18T17:07:48.251Z,35.55
2019-05-18T17:10:18.843Z,33.83
2019-05-18T17:12:48.952Z,31.61
2019-05-18T17:15:19.429Z,31.95
2019-05-18T17:17:49.027Z,30.29
2019-05-18T17:20:19.224Z,28.55
2019-05-18T17:22:48.696Z,28.40
2019-05-18T17:25:18.354Z,28.96
2019-05-18T17:27:47.905Z,31.16
2019-05-18T17:30:17.943Z,32.31
2019-05-18T17:32:47.873Z,34.19
2019-05-18T17:35:17.576Z,35.75
2019-05-18T17:37:48.656Z,36.91
2019-05-18T17:40:18.240Z,38.25
2019-05-18T17:42:47.823Z,39.01
2019-05-18T17:45:17.431Z,39.90
2019-05-18T17:47:46.982Z,40.87
2019-05-18T17:50:16.569Z,42.45
2019-05-18T17:52:46.265Z,43.68
2019-05-18T17:55:16.738Z,45.05
2019-05-18T17:57:46.207Z,45.92
2019-05-18T18:00:16.621Z,46.63
2019-05-18T18:02:48.177Z,47.25
2019-05-18T18:05:17.934Z,47.77
2019-05-18T18:07:47.491Z,48.51
2019-05-18T18:10:17.981Z,48.81
2019-05-18T18:12:47.605Z,49.05
2019-05-18T18:15:17.186Z,49.40
2019-05-18T18:17:46.778Z,49.70
2019-05-18T18:20:16.785Z,50.09
2019-05-18T18:22:46.341Z,50.34
2019-05-18T18:25:15.991Z,50.64
2019-05-18T18:27:45.508Z,50.54
2019-05-18T18:30:15.829Z,50.78
2019-05-18T18:32:45.287Z,51.01
2019-05-18T18:35:14.928Z,51.33
2019-05-18T18:37:44.493Z,51.71
2019-05-18T18:40:14.877Z,51.92
2019-05-18T18:42:44.698Z,52.23
2019-05-18T18:45:14.728Z,52.66
2019-05-18T18:47:44.271Z,52.96
2019-05-18T18:50:14.196Z,53.02
2019-05-18T18:52:43.704Z,53.42
2019-05-18T18:55:13.436Z,53.79
2019-05-18T18:57:43.269Z,53.96
2019-05-18T19:00:13.297Z,54.33
2019-05-18T19:02:42.746Z,54.66
2019-05-18T19:05:14.390Z,54.87
2019-05-18T19:07:43.992Z,55.01
2019-05-18T19:10:14.070Z,55.36
2019-05-18T19:12:43.686Z,55.58
2019-05-18T19:15:13.511Z,56.00
2019-05-18T19:17:43.025Z,56.16
2019-05-18T19:20:13.453Z,56.55
2019-05-18T19:22:42.919Z,56.63
2019-05-18T19:25:13.335Z,56.91
2019-05-18T19:27:53.985Z,57.24
2019-05-18T19:30:14.523Z,57.66
2019-05-18T19:32:44.039Z,57.97
2019-05-18T19:35:13.894Z,58.43
2019-05-18T19:37:43.490Z,58.87
2019-05-18T19:40:14.814Z,59.03
2019-05-18T19:42:44.630Z,59.26
2019-05-18T19:45:14.724Z,59.42
2019-05-18T19:47:44.230Z,59.89
2019-05-18T19:50:14.681Z,60.30
2019-05-18T19:52:44.197Z,60.50
2019-05-18T19:55:14.190Z,60.72
2019-05-18T19:57:43.712Z,61.11
2019-05-18T20:00:13.507Z,61.54
2019-05-18T20:02:43.105Z,61.59
2019-05-18T20:05:12.691Z,61.70
2019-05-18T20:07:42.668Z,62.24
2019-05-18T20:10:13.311Z,62.66
2019-05-18T20:12:43.146Z,62.89
2019-05-18T20:15:13.358Z,63.02
2019-05-18T20:17:42.867Z,63.24
2019-05-18T20:20:13.272Z,63.43
2019-05-18T20:22:42.987Z,63.84
2019-05-18T20:25:13.734Z,64.20
2019-05-18T20:27:43.550Z,64.59
2019-05-18T20:30:14.381Z,65.10
2019-05-18T20:32:44.193Z,65.45
2019-05-18T20:35:14.525Z,65.66
2019-05-18T20:37:44.113Z,65.99
2019-05-18T20:40:14.456Z,66.10
2019-05-18T20:42:44.709Z,66.22
2019-05-18T20:45:14.160Z,66.48
2019-05-18T20:47:43.742Z,66.65
2019-05-18T20:50:15.280Z,67.04
2019-05-18T20:52:44.934Z,67.30
2019-05-18T20:55:14.617Z,67.73
2019-05-18T20:57:45.124Z,67.98
2019-05-18T21:00:15.209Z,68.29
2019-05-18T21:02:45.714Z,68.62
2019-05-18T21:05:15.405Z,68.93
2019-05-18T21:07:44.932Z,69.33
2019-05-18T21:10:15.109Z,69.54
2019-05-18T21:12:44.675Z,69.88
2019-05-18T21:15:14.900Z,70.14
2019-05-18T21:17:44.385Z,70.39
2019-05-18T21:20:14.345Z,70.67
2019-05-18T21:22:43.814Z,70.96
2019-05-18T21:25:13.633Z,71.23
2019-05-18T21:27:43.119Z,71.55
2019-05-18T21:30:13.196Z,71.71
2019-05-18T21:32:43.918Z,71.93
2019-05-18T21:35:13.536Z,72.11
2019-05-18T21:37:42.947Z,72.27
2019-05-18T21:40:13.201Z,72.34
2019-05-18T21:42:43.791Z,72.46
2019-05-18T21:45:13.643Z,72.71
2019-05-18T21:47:43.122Z,72.96
2019-05-18T21:50:14.149Z,73.12
2019-05-18T21:52:44.001Z,73.37
2019-05-18T21:55:13.635Z,73.47
2019-05-18T21:57:43.096Z,73.67
2019-05-18T22:00:13.331Z,73.85
2019-05-18T22:02:44.485Z,74.07
2019-05-18T22:05:14.208Z,74.29
2019-05-18T22:07:43.962Z,74.38
2019-05-18T22:10:25.415Z,74.54
2019-05-18T22:12:45.105Z,74.69
2019-05-18T22:15:15.557Z,74.81
2019-05-18T22:18:02.993Z,74.78
2019-05-18T22:20:33.799Z,74.80
2019-05-18T22:23:04.279Z,74.71
2019-05-18T22:25:34.319Z,74.61
2019-05-18T22:28:03.854Z,74.52
2019-05-18T22:30:33.573Z,74.43
2019-05-18T22:33:03.427Z,74.88
2019-05-18T22:35:32.950Z,74.69
2019-05-18T22:38:02.490Z,74.64
2019-05-18T22:40:32.008Z,74.53
2019-05-18T22:43:02.488Z,74.73
2019-05-18T22:45:32.426Z,74.88
2019-05-18T22:48:02.223Z,74.83
2019-05-18T22:50:32.103Z,74.94
2019-05-18T22:53:01.629Z,74.98
2019-05-18T22:55:31.165Z,75.12
2019-05-18T22:58:00.668Z,75.30
2019-05-18T23:00:30.463Z,75.48
2019-05-18T23:02:59.958Z,75.67
2019-05-18T23:05:29.457Z,75.83
2019-05-18T23:07:58.968Z,75.97
2019-05-18T23:10:28.450Z,76.23
2019-05-18T23:12:58.030Z,76.23
2019-05-18T23:15:27.492Z,76.24
2019-05-18T23:17:57.270Z,76.36
2019-05-18T23:20:26.786Z,76.23
2019-05-18T23:22:56.343Z,76.38
2019-05-18T23:25:25.881Z,76.47
2019-05-18T23:27:55.722Z,76.46
2019-05-18T23:30:25.252Z,76.58
2019-05-18T23:32:54.750Z,76.66
2019-05-18T23:35:24.238Z,76.76
2019-05-18T23:37:54.155Z,76.87
2019-05-18T23:40:23.723Z,76.99
2019-05-18T23:42:53.227Z,77.04
2019-05-18T23:45:22.691Z,77.10
2019-05-18T23:47:52.357Z,77.17
2019-05-18T23:50:21.885Z,77.34
2019-05-18T23:52:51.412Z,77.45
2019-05-18T23:55:20.997Z,77.55
2019-05-18T23:57:50.983Z,77.77
